sensor_id;sensor_type;location;lat;lon;timestamp;temperature;humidity
45729;DHT22;31439;53.512;10.206;2023-08-06T00:01:29;17.20;99.90
45729;DHT22;31439;53.512;10.206;2023-08-06T00:03:54;17.20;99.90
45729;DHT22;31439;53.512;10.206;2023-08-06T00:06:20;17.10;99.90
45729;DHT22;31439;53.512;10.206;2023-08-06T00:08:46;17.10;99.90
45729;DHT22;31439;53.512;10.206;2023-08-06T00:11:12;17.00;99.90
45729;DHT22;31439;53.512;10.206;2023-08-06T00:13:38;16.90;99.90
45729;DHT22;31439;53.512;10.206;2023-08-06T00:16:13;16.80;99.90
45729;DHT22;31439;53.512;10.206;2023-08-06T00:18:39;16.80;99.90
45729;DHT22;31439;53.512;10.206;2023-08-06T00:21:05;16.80;99.90
45729;DHT22;31439;53.512;10.206;2023-08-06T00:23:31;16.80;99.90
45729;DHT22;31439;53.512;10.206;2023-08-06T00:25:56;16.80;99.90
45729;DHT22;31439;53.512;10.206;2023-08-06T00:28:22;16.80;99.90
45729;DHT22;31439;53.512;10.206;2023-08-06T00:30:56;16.80;99.90
45729;DHT22;31439;53.512;10.206;2023-08-06T00:33:23;16.70;99.90
45729;DHT22;31439;53.512;10.206;2023-08-06T00:35:48;16.70;99.90
45729;DHT22;31439;53.512;10.206;2023-08-06T00:38:14;16.60;99.90
45729;DHT22;31439;53.512;10.206;2023-08-06T00:40:40;16.70;99.90
45729;DHT22;31439;53.512;10.206;2023-08-06T00:43:05;16.70;99.90
45729;DHT22;31439;53.512;10.206;2023-08-06T00:45:34;16.60;99.90
45729;DHT22;31439;53.512;10.206;2023-08-06T00:48:01;16.60;99.90
45729;DHT22;31439;53.512;10.206;2023-08-06T00:50:27;16.60;99.90
45729;DHT22;31439;53.512;10.206;2023-08-06T00:52:53;16.70;99.90
45729;DHT22;31439;53.512;10.206;2023-08-06T00:55:19;16.70;99.90
45729;DHT22;31439;53.512;10.206;2023-08-06T00:57:45;16.60;99.90
45729;DHT22;31439;53.512;10.206;2023-08-06T01:00:11;16.60;99.90
45729;DHT22;31439;53.512;10.206;2023-08-06T01:02:37;16.70;99.90
45729;DHT22;31439;53.512;10.206;2023-08-06T01:05:03;16.60;99.90
45729;DHT22;31439;53.512;10.206;2023-08-06T01:07:37;16.60;99.90
45729;DHT22;31439;53.512;10.206;2023-08-06T01:10:37;16.50;99.90
45729;DHT22;31439;53.512;10.206;2023-08-06T01:13:11;16.60;99.90
45729;DHT22;31439;53.512;10.206;2023-08-06T01:15:57;16.50;99.90
45729;DHT22;31439;53.512;10.206;2023-08-06T01:18:27;16.60;99.90
45729;DHT22;31439;53.512;10.206;2023-08-06T01:20:53;16.60;99.90
45729;DHT22;31439;53.512;10.206;2023-08-06T01:23:19;16.60;99.90
45729;DHT22;31439;53.512;10.206;2023-08-06T01:31:04;16.60;99.90
45729;DHT22;31439;53.512;10.206;2023-08-06T01:33:33;16.60;99.90
45729;DHT22;31439;53.512;10.206;2023-08-06T01:36:00;16.70;99.90
45729;DHT22;31439;53.512;10.206;2023-08-06T01:38:26;16.60;99.90
45729;DHT22;31439;53.512;10.206;2023-08-06T01:40:53;16.60;99.90
45729;DHT22;31439;53.512;10.206;2023-08-06T01:43:19;16.60;99.90
45729;DHT22;31439;53.512;10.206;2023-08-06T01:45:44;16.60;99.90
45729;DHT22;31439;53.512;10.206;2023-08-06T01:48:10;16.60;99.90
45729;DHT22;31439;53.512;10.206;2023-08-06T01:50:36;16.60;99.90
45729;DHT22;31439;53.512;10.206;2023-08-06T01:53:01;16.60;99.90
45729;DHT22;31439;53.512;10.206;2023-08-06T01:55:28;16.60;99.90
45729;DHT22;31439;53.512;10.206;2023-08-06T01:57:54;16.60;99.90
45729;DHT22;31439;53.512;10.206;2023-08-06T02:00:19;16.60;99.90
45729;DHT22;31439;53.512;10.206;2023-08-06T02:02:45;16.60;99.90
45729;DHT22;31439;53.512;10.206;2023-08-06T02:05:10;16.50;99.90
45729;DHT22;31439;53.512;10.206;2023-08-06T02:07:36;16.50;99.90
45729;DHT22;31439;53.512;10.206;2023-08-06T02:10:02;16.40;99.90
45729;DHT22;31439;53.512;10.206;2023-08-06T02:12:27;16.40;99.90
45729;DHT22;31439;53.512;10.206;2023-08-06T02:14:53;16.40;99.90
45729;DHT22;31439;53.512;10.206;2023-08-06T02:17:18;16.40;99.90
45729;DHT22;31439;53.512;10.206;2023-08-06T02:19:44;16.50;99.90
45729;DHT22;31439;53.512;10.206;2023-08-06T02:22:09;16.50;99.90
45729;DHT22;31439;53.512;10.206;2023-08-06T02:24:35;16.40;99.90
45729;DHT22;31439;53.512;10.206;2023-08-06T02:27:00;16.40;99.90
45729;DHT22;31439;53.512;10.206;2023-08-06T02:29:26;16.40;99.90
45729;DHT22;31439;53.512;10.206;2023-08-06T02:31:52;16.40;99.90
45729;DHT22;31439;53.512;10.206;2023-08-06T02:34:17;16.40;99.90
45729;DHT22;31439;53.512;10.206;2023-08-06T02:36:43;16.40;99.90
45729;DHT22;31439;53.512;10.206;2023-08-06T02:39:09;16.50;99.90
45729;DHT22;31439;53.512;10.206;2023-08-06T02:41:34;16.40;99.90
45729;DHT22;31439;53.512;10.206;2023-08-06T02:44:00;16.40;99.90
45729;DHT22;31439;53.512;10.206;2023-08-06T02:46:26;16.40;99.90
45729;DHT22;31439;53.512;10.206;2023-08-06T02:48:51;16.50;99.90
45729;DHT22;31439;53.512;10.206;2023-08-06T02:51:17;16.50;99.90
45729;DHT22;31439;53.512;10.206;2023-08-06T02:53:42;16.50;99.90
45729;DHT22;31439;53.512;10.206;2023-08-06T02:56:08;16.40;99.90
45729;DHT22;31439;53.512;10.206;2023-08-06T02:58:33;16.40;99.90
45729;DHT22;31439;53.512;10.206;2023-08-06T03:01:08;16.30;99.90
45729;DHT22;31439;53.512;10.206;2023-08-06T03:03:33;16.30;99.90
45729;DHT22;31439;53.512;10.206;2023-08-06T03:05:59;16.30;99.90
45729;DHT22;31439;53.512;10.206;2023-08-06T03:08:25;16.30;99.90
45729;DHT22;31439;53.512;10.206;2023-08-06T03:10:51;16.20;99.90
45729;DHT22;31439;53.512;10.206;2023-08-06T03:13:18;16.10;99.90
45729;DHT22;31439;53.512;10.206;2023-08-06T03:15:57;16.20;99.90
45729;DHT22;31439;53.512;10.206;2023-08-06T03:18:23;16.20;99.90
45729;DHT22;31439;53.512;10.206;2023-08-06T03:20:49;16.20;99.90
45729;DHT22;31439;53.512;10.206;2023-08-06T03:23:15;16.20;99.90
45729;DHT22;31439;53.512;10.206;2023-08-06T03:25:40;16.20;99.90
45729;DHT22;31439;53.512;10.206;2023-08-06T03:28:06;16.20;99.90
45729;DHT22;31439;53.512;10.206;2023-08-06T03:30:32;16.20;99.90
45729;DHT22;31439;53.512;10.206;2023-08-06T03:32:57;16.20;99.90
45729;DHT22;31439;53.512;10.206;2023-08-06T03:35:23;16.20;99.90
45729;DHT22;31439;53.512;10.206;2023-08-06T03:37:48;16.60;99.90
45729;DHT22;31439;53.512;10.206;2023-08-06T03:40:15;16.20;99.90
45729;DHT22;31439;53.512;10.206;2023-08-06T03:42:41;16.30;99.90
45729;DHT22;31439;53.512;10.206;2023-08-06T03:45:07;16.30;99.90
45729;DHT22;31439;53.512;10.206;2023-08-06T03:47:33;16.30;99.90
45729;DHT22;31439;53.512;10.206;2023-08-06T03:49:58;16.30;99.90
45729;DHT22;31439;53.512;10.206;2023-08-06T03:52:24;16.10;99.90
45729;DHT22;31439;53.512;10.206;2023-08-06T03:54:49;16.20;99.90
45729;DHT22;31439;53.512;10.206;2023-08-06T03:57:15;16.10;99.90
45729;DHT22;31439;53.512;10.206;2023-08-06T03:59:41;16.10;99.90
45729;DHT22;31439;53.512;10.206;2023-08-06T04:02:06;16.10;99.90
45729;DHT22;31439;53.512;10.206;2023-08-06T04:04:32;16.20;99.90
45729;DHT22;31439;53.512;10.206;2023-08-06T04:06:58;16.20;99.90
45729;DHT22;31439;53.512;10.206;2023-08-06T04:09:23;16.10;99.90
45729;DHT22;31439;53.512;10.206;2023-08-06T04:11:49;16.10;99.90
45729;DHT22;31439;53.512;10.206;2023-08-06T04:14:14;16.00;99.90
45729;DHT22;31439;53.512;10.206;2023-08-06T04:16:40;16.00;99.90
45729;DHT22;31439;53.512;10.206;2023-08-06T04:19:05;16.00;99.90
45729;DHT22;31439;53.512;10.206;2023-08-06T04:21:31;16.10;99.90
45729;DHT22;31439;53.512;10.206;2023-08-06T04:23:56;16.10;99.90
45729;DHT22;31439;53.512;10.206;2023-08-06T04:26:22;16.10;99.90
45729;DHT22;31439;53.512;10.206;2023-08-06T04:28:48;16.10;99.90
45729;DHT22;31439;53.512;10.206;2023-08-06T04:31:14;16.10;99.90
45729;DHT22;31439;53.512;10.206;2023-08-06T04:33:40;16.10;99.90
45729;DHT22;31439;53.512;10.206;2023-08-06T04:36:06;16.10;99.90
45729;DHT22;31439;53.512;10.206;2023-08-06T04:38:32;16.10;99.90
45729;DHT22;31439;53.512;10.206;2023-08-06T04:40:58;16.10;99.90
45729;DHT22;31439;53.512;10.206;2023-08-06T04:43:23;16.00;99.90
45729;DHT22;31439;53.512;10.206;2023-08-06T04:45:50;16.10;99.90
45729;DHT22;31439;53.512;10.206;2023-08-06T04:48:16;16.00;99.90
45729;DHT22;31439;53.512;10.206;2023-08-06T04:50:46;16.10;99.90
45729;DHT22;31439;53.512;10.206;2023-08-06T04:53:12;16.00;99.90
45729;DHT22;31439;53.512;10.206;2023-08-06T04:55:37;16.00;99.90
45729;DHT22;31439;53.512;10.206;2023-08-06T04:58:03;16.00;99.90
45729;DHT22;31439;53.512;10.206;2023-08-06T05:00:29;16.10;99.90
45729;DHT22;31439;53.512;10.206;2023-08-06T05:02:55;16.00;99.90
45729;DHT22;31439;53.512;10.206;2023-08-06T05:05:20;16.00;99.90
45729;DHT22;31439;53.512;10.206;2023-08-06T05:07:49;16.00;99.90
45729;DHT22;31439;53.512;10.206;2023-08-06T05:10:15;16.10;99.90
45729;DHT22;31439;53.512;10.206;2023-08-06T05:12:40;16.10;99.90
45729;DHT22;31439;53.512;10.206;2023-08-06T05:15:06;16.10;99.90
45729;DHT22;31439;53.512;10.206;2023-08-06T05:17:32;16.10;99.90
45729;DHT22;31439;53.512;10.206;2023-08-06T05:19:57;16.10;99.90
45729;DHT22;31439;53.512;10.206;2023-08-06T05:22:23;16.10;99.90
45729;DHT22;31439;53.512;10.206;2023-08-06T05:24:49;16.10;99.90
45729;DHT22;31439;53.512;10.206;2023-08-06T05:27:14;16.10;99.90
45729;DHT22;31439;53.512;10.206;2023-08-06T05:29:40;16.10;99.90
45729;DHT22;31439;53.512;10.206;2023-08-06T05:32:06;16.10;99.90
45729;DHT22;31439;53.512;10.206;2023-08-06T05:34:31;16.10;99.90
45729;DHT22;31439;53.512;10.206;2023-08-06T05:36:57;16.10;99.90
45729;DHT22;31439;53.512;10.206;2023-08-06T05:39:22;16.10;99.90
45729;DHT22;31439;53.512;10.206;2023-08-06T05:41:48;16.10;99.90
45729;DHT22;31439;53.512;10.206;2023-08-06T05:44:13;16.20;99.90
45729;DHT22;31439;53.512;10.206;2023-08-06T05:46:39;16.10;99.90
45729;DHT22;31439;53.512;10.206;2023-08-06T05:49:04;16.10;99.90
45729;DHT22;31439;53.512;10.206;2023-08-06T05:51:30;16.10;99.90
45729;DHT22;31439;53.512;10.206;2023-08-06T05:53:56;16.20;99.90
45729;DHT22;31439;53.512;10.206;2023-08-06T05:56:21;16.20;99.90
45729;DHT22;31439;53.512;10.206;2023-08-06T05:58:47;16.20;99.90
45729;DHT22;31439;53.512;10.206;2023-08-06T06:01:13;16.20;99.90
45729;DHT22;31439;53.512;10.206;2023-08-06T06:03:38;16.20;99.90
45729;DHT22;31439;53.512;10.206;2023-08-06T06:06:04;16.20;99.90
45729;DHT22;31439;53.512;10.206;2023-08-06T06:08:30;16.20;99.90
45729;DHT22;31439;53.512;10.206;2023-08-06T06:10:55;16.10;99.90
45729;DHT22;31439;53.512;10.206;2023-08-06T06:13:21;16.20;99.90
45729;DHT22;31439;53.512;10.206;2023-08-06T06:15:47;16.20;99.90
45729;DHT22;31439;53.512;10.206;2023-08-06T06:18:13;16.30;99.90
45729;DHT22;31439;53.512;10.206;2023-08-06T06:20:38;16.20;99.90
45729;DHT22;31439;53.512;10.206;2023-08-06T06:23:04;16.30;99.90
45729;DHT22;31439;53.512;10.206;2023-08-06T06:25:30;16.30;99.90
45729;DHT22;31439;53.512;10.206;2023-08-06T06:27:55;16.40;99.90
45729;DHT22;31439;53.512;10.206;2023-08-06T06:30:21;16.20;99.90
45729;DHT22;31439;53.512;10.206;2023-08-06T06:32:47;16.30;99.90
45729;DHT22;31439;53.512;10.206;2023-08-06T06:35:13;16.40;99.90
45729;DHT22;31439;53.512;10.206;2023-08-06T06:37:38;16.40;99.90
45729;DHT22;31439;53.512;10.206;2023-08-06T06:40:04;16.40;99.90
45729;DHT22;31439;53.512;10.206;2023-08-06T06:42:30;16.50;99.90
45729;DHT22;31439;53.512;10.206;2023-08-06T06:44:56;16.50;99.90
45729;DHT22;31439;53.512;10.206;2023-08-06T06:47:21;16.50;99.90
45729;DHT22;31439;53.512;10.206;2023-08-06T06:49:47;16.50;99.90
45729;DHT22;31439;53.512;10.206;2023-08-06T06:52:12;16.50;99.90
45729;DHT22;31439;53.512;10.206;2023-08-06T06:54:38;16.60;99.90
45729;DHT22;31439;53.512;10.206;2023-08-06T06:57:04;16.60;99.90
45729;DHT22;31439;53.512;10.206;2023-08-06T06:59:30;16.60;99.90
45729;DHT22;31439;53.512;10.206;2023-08-06T07:01:55;16.60;99.90
45729;DHT22;31439;53.512;10.206;2023-08-06T07:04:21;16.80;99.90
45729;DHT22;31439;53.512;10.206;2023-08-06T07:06:47;16.70;99.90
45729;DHT22;31439;53.512;10.206;2023-08-06T07:09:13;16.70;99.90
45729;DHT22;31439;53.512;10.206;2023-08-06T07:11:38;16.80;99.90
45729;DHT22;31439;53.512;10.206;2023-08-06T07:14:04;16.70;99.90
45729;DHT22;31439;53.512;10.206;2023-08-06T07:16:29;16.80;99.90
45729;DHT22;31439;53.512;10.206;2023-08-06T07:18:55;16.80;99.90
45729;DHT22;31439;53.512;10.206;2023-08-06T07:21:21;16.90;99.90
45729;DHT22;31439;53.512;10.206;2023-08-06T07:23:46;16.80;99.90
45729;DHT22;31439;53.512;10.206;2023-08-06T07:26:15;16.90;99.90
45729;DHT22;31439;53.512;10.206;2023-08-06T07:28:40;17.20;99.90
45729;DHT22;31439;53.512;10.206;2023-08-06T07:31:09;17.40;99.90
45729;DHT22;31439;53.512;10.206;2023-08-06T07:33:34;17.50;99.90
45729;DHT22;31439;53.512;10.206;2023-08-06T07:36:07;17.70;99.90
45729;DHT22;31439;53.512;10.206;2023-08-06T07:38:32;17.60;99.90
45729;DHT22;31439;53.512;10.206;2023-08-06T07:41:00;17.50;99.90
45729;DHT22;31439;53.512;10.206;2023-08-06T07:43:26;17.40;99.90
45729;DHT22;31439;53.512;10.206;2023-08-06T07:45:52;17.30;99.90
45729;DHT22;31439;53.512;10.206;2023-08-06T07:48:17;17.20;99.90
45729;DHT22;31439;53.512;10.206;2023-08-06T07:50:43;17.60;99.90
45729;DHT22;31439;53.512;10.206;2023-08-06T07:53:15;18.00;99.90
45729;DHT22;31439;53.512;10.206;2023-08-06T07:55:41;18.00;99.90
45729;DHT22;31439;53.512;10.206;2023-08-06T07:58:06;18.00;99.90
45729;DHT22;31439;53.512;10.206;2023-08-06T08:00:32;17.90;99.90
45729;DHT22;31439;53.512;10.206;2023-08-06T08:02:58;17.90;99.90
45729;DHT22;31439;53.512;10.206;2023-08-06T08:05:24;17.70;99.90
45729;DHT22;31439;53.512;10.206;2023-08-06T08:07:49;17.80;99.90
45729;DHT22;31439;53.512;10.206;2023-08-06T08:10:15;18.00;99.90
45729;DHT22;31439;53.512;10.206;2023-08-06T08:12:40;18.00;99.90
45729;DHT22;31439;53.512;10.206;2023-08-06T08:15:06;18.00;99.90
45729;DHT22;31439;53.512;10.206;2023-08-06T08:17:32;18.00;99.90
45729;DHT22;31439;53.512;10.206;2023-08-06T08:19:58;18.10;99.90
45729;DHT22;31439;53.512;10.206;2023-08-06T08:22:23;18.10;99.90
45729;DHT22;31439;53.512;10.206;2023-08-06T08:24:49;18.00;99.90
45729;DHT22;31439;53.512;10.206;2023-08-06T08:27:14;18.20;99.90
45729;DHT22;31439;53.512;10.206;2023-08-06T08:29:40;18.30;99.90
45729;DHT22;31439;53.512;10.206;2023-08-06T08:32:05;18.10;99.90
45729;DHT22;31439;53.512;10.206;2023-08-06T08:34:31;17.90;99.90
45729;DHT22;31439;53.512;10.206;2023-08-06T08:37:02;17.80;99.90
45729;DHT22;31439;53.512;10.206;2023-08-06T08:39:32;17.70;99.90
45729;DHT22;31439;53.512;10.206;2023-08-06T08:41:58;17.60;99.90
45729;DHT22;31439;53.512;10.206;2023-08-06T08:44:24;17.50;99.90
45729;DHT22;31439;53.512;10.206;2023-08-06T08:46:53;17.40;99.90
45729;DHT22;31439;53.512;10.206;2023-08-06T08:49:21;17.40;99.90
45729;DHT22;31439;53.512;10.206;2023-08-06T08:51:49;17.30;99.90
45729;DHT22;31439;53.512;10.206;2023-08-06T08:54:17;17.30;99.90
45729;DHT22;31439;53.512;10.206;2023-08-06T08:56:44;17.30;99.90
45729;DHT22;31439;53.512;10.206;2023-08-06T08:59:10;17.30;99.90
45729;DHT22;31439;53.512;10.206;2023-08-06T09:01:37;17.30;99.90
45729;DHT22;31439;53.512;10.206;2023-08-06T09:04:04;17.30;99.90
45729;DHT22;31439;53.512;10.206;2023-08-06T09:06:38;17.20;99.90
45729;DHT22;31439;53.512;10.206;2023-08-06T09:09:12;17.20;99.90
45729;DHT22;31439;53.512;10.206;2023-08-06T09:11:44;17.20;99.90
45729;DHT22;31439;53.512;10.206;2023-08-06T09:14:11;17.30;99.90
45729;DHT22;31439;53.512;10.206;2023-08-06T09:16:38;17.30;99.90
45729;DHT22;31439;53.512;10.206;2023-08-06T09:19:13;17.30;99.90
45729;DHT22;31439;53.512;10.206;2023-08-06T09:21:41;17.30;99.90
45729;DHT22;31439;53.512;10.206;2023-08-06T09:24:12;17.40;99.90
45729;DHT22;31439;53.512;10.206;2023-08-06T09:26:39;17.40;99.90
45729;DHT22;31439;53.512;10.206;2023-08-06T09:29:06;17.30;99.90
45729;DHT22;31439;53.512;10.206;2023-08-06T09:31:48;17.30;99.90
45729;DHT22;31439;53.512;10.206;2023-08-06T09:36:47;17.30;99.90
45729;DHT22;31439;53.512;10.206;2023-08-06T09:39:46;17.30;99.90
45729;DHT22;31439;53.512;10.206;2023-08-06T09:42:15;17.30;99.90
45729;DHT22;31439;53.512;10.206;2023-08-06T09:44:41;17.20;99.90
45729;DHT22;31439;53.512;10.206;2023-08-06T09:47:10;17.20;99.90
45729;DHT22;31439;53.512;10.206;2023-08-06T09:52:05;17.20;99.90
45729;DHT22;31439;53.512;10.206;2023-08-06T09:54:31;17.20;99.90
45729;DHT22;31439;53.512;10.206;2023-08-06T09:56:57;17.30;99.90
45729;DHT22;31439;53.512;10.206;2023-08-06T09:59:23;17.30;99.90
45729;DHT22;31439;53.512;10.206;2023-08-06T10:01:49;17.30;99.90
45729;DHT22;31439;53.512;10.206;2023-08-06T10:04:15;17.30;99.90
45729;DHT22;31439;53.512;10.206;2023-08-06T10:06:42;17.30;99.90
45729;DHT22;31439;53.512;10.206;2023-08-06T10:09:08;17.20;99.90
45729;DHT22;31439;53.512;10.206;2023-08-06T10:11:36;17.30;99.90
45729;DHT22;31439;53.512;10.206;2023-08-06T10:14:13;17.30;99.90
45729;DHT22;31439;53.512;10.206;2023-08-06T10:16:40;17.30;99.90
45729;DHT22;31439;53.512;10.206;2023-08-06T10:19:09;17.40;99.90
45729;DHT22;31439;53.512;10.206;2023-08-06T10:21:35;17.30;99.90
45729;DHT22;31439;53.512;10.206;2023-08-06T10:24:00;17.30;99.90
45729;DHT22;31439;53.512;10.206;2023-08-06T10:26:28;17.40;99.90
45729;DHT22;31439;53.512;10.206;2023-08-06T10:28:57;17.40;99.90
45729;DHT22;31439;53.512;10.206;2023-08-06T10:31:54;17.70;99.90
45729;DHT22;31439;53.512;10.206;2023-08-06T10:34:25;17.40;99.90
45729;DHT22;31439;53.512;10.206;2023-08-06T10:37:09;17.40;99.90
45729;DHT22;31439;53.512;10.206;2023-08-06T10:39:35;17.30;99.90
45729;DHT22;31439;53.512;10.206;2023-08-06T10:42:04;17.40;99.90
45729;DHT22;31439;53.512;10.206;2023-08-06T10:44:30;17.30;99.90
45729;DHT22;31439;53.512;10.206;2023-08-06T10:46:55;17.40;99.90
45729;DHT22;31439;53.512;10.206;2023-08-06T10:49:21;17.40;99.90
45729;DHT22;31439;53.512;10.206;2023-08-06T10:51:47;17.30;99.90
45729;DHT22;31439;53.512;10.206;2023-08-06T10:54:17;17.30;99.90
45729;DHT22;31439;53.512;10.206;2023-08-06T10:56:43;17.40;99.90
45729;DHT22;31439;53.512;10.206;2023-08-06T10:59:15;17.40;99.90
45729;DHT22;31439;53.512;10.206;2023-08-06T11:01:41;17.40;99.90
45729;DHT22;31439;53.512;10.206;2023-08-06T11:04:07;17.40;99.90
45729;DHT22;31439;53.512;10.206;2023-08-06T11:06:32;17.30;99.90
45729;DHT22;31439;53.512;10.206;2023-08-06T11:08:59;17.50;99.90
45729;DHT22;31439;53.512;10.206;2023-08-06T11:11:24;17.70;99.90
45729;DHT22;31439;53.512;10.206;2023-08-06T11:13:51;17.70;99.90
45729;DHT22;31439;53.512;10.206;2023-08-06T11:16:21;17.60;99.90
45729;DHT22;31439;53.512;10.206;2023-08-06T11:18:48;17.60;99.90
45729;DHT22;31439;53.512;10.206;2023-08-06T11:21:14;17.60;99.90
45729;DHT22;31439;53.512;10.206;2023-08-06T11:23:40;17.60;99.90
45729;DHT22;31439;53.512;10.206;2023-08-06T11:26:06;17.60;99.90
45729;DHT22;31439;53.512;10.206;2023-08-06T11:28:32;17.50;99.90
45729;DHT22;31439;53.512;10.206;2023-08-06T11:30:58;17.60;99.90
45729;DHT22;31439;53.512;10.206;2023-08-06T11:33:28;17.60;99.90
45729;DHT22;31439;53.512;10.206;2023-08-06T11:35:58;17.60;99.90
45729;DHT22;31439;53.512;10.206;2023-08-06T11:38:28;17.60;99.90
45729;DHT22;31439;53.512;10.206;2023-08-06T11:40:54;17.60;99.90
45729;DHT22;31439;53.512;10.206;2023-08-06T11:43:20;17.60;99.90
45729;DHT22;31439;53.512;10.206;2023-08-06T11:45:50;17.60;99.90
45729;DHT22;31439;53.512;10.206;2023-08-06T11:48:17;17.60;99.90
45729;DHT22;31439;53.512;10.206;2023-08-06T11:50:43;17.60;99.90
45729;DHT22;31439;53.512;10.206;2023-08-06T11:53:12;17.60;99.90
45729;DHT22;31439;53.512;10.206;2023-08-06T11:55:38;17.60;99.90
45729;DHT22;31439;53.512;10.206;2023-08-06T11:58:04;17.60;99.90
45729;DHT22;31439;53.512;10.206;2023-08-06T12:00:30;17.60;99.90
45729;DHT22;31439;53.512;10.206;2023-08-06T12:02:56;17.60;99.90
45729;DHT22;31439;53.512;10.206;2023-08-06T12:05:23;17.60;99.90
45729;DHT22;31439;53.512;10.206;2023-08-06T12:07:51;17.70;99.90
45729;DHT22;31439;53.512;10.206;2023-08-06T12:10:18;17.70;99.90
45729;DHT22;31439;53.512;10.206;2023-08-06T12:12:45;17.70;99.90
45729;DHT22;31439;53.512;10.206;2023-08-06T12:15:11;17.80;99.90
45729;DHT22;31439;53.512;10.206;2023-08-06T12:17:37;17.80;99.90
45729;DHT22;31439;53.512;10.206;2023-08-06T12:20:04;17.70;99.90
45729;DHT22;31439;53.512;10.206;2023-08-06T12:22:30;17.70;99.90
45729;DHT22;31439;53.512;10.206;2023-08-06T12:25:00;17.80;99.90
45729;DHT22;31439;53.512;10.206;2023-08-06T12:27:38;17.80;99.90
45729;DHT22;31439;53.512;10.206;2023-08-06T12:30:05;17.70;99.90
45729;DHT22;31439;53.512;10.206;2023-08-06T12:32:31;17.70;99.90
45729;DHT22;31439;53.512;10.206;2023-08-06T12:34:57;17.70;99.90
45729;DHT22;31439;53.512;10.206;2023-08-06T12:37:25;17.70;99.90
45729;DHT22;31439;53.512;10.206;2023-08-06T12:39:50;17.80;99.90
45729;DHT22;31439;53.512;10.206;2023-08-06T12:42:16;17.80;99.90
45729;DHT22;31439;53.512;10.206;2023-08-06T12:44:44;17.90;99.90
45729;DHT22;31439;53.512;10.206;2023-08-06T12:47:10;17.80;99.90
45729;DHT22;31439;53.512;10.206;2023-08-06T12:49:36;17.90;99.90
45729;DHT22;31439;53.512;10.206;2023-08-06T12:52:04;17.90;99.90
45729;DHT22;31439;53.512;10.206;2023-08-06T12:54:32;17.90;99.90
45729;DHT22;31439;53.512;10.206;2023-08-06T12:57:03;18.00;99.90
45729;DHT22;31439;53.512;10.206;2023-08-06T12:59:29;18.00;99.90
45729;DHT22;31439;53.512;10.206;2023-08-06T13:02:02;18.00;99.90
45729;DHT22;31439;53.512;10.206;2023-08-06T13:04:28;18.10;99.90
45729;DHT22;31439;53.512;10.206;2023-08-06T13:06:53;18.00;99.90
45729;DHT22;31439;53.512;10.206;2023-08-06T13:09:19;18.00;99.90
45729;DHT22;31439;53.512;10.206;2023-08-06T13:11:44;18.10;99.90
45729;DHT22;31439;53.512;10.206;2023-08-06T13:14:12;18.10;99.90
45729;DHT22;31439;53.512;10.206;2023-08-06T13:16:40;18.20;99.90
45729;DHT22;31439;53.512;10.206;2023-08-06T13:19:06;18.40;99.90
45729;DHT22;31439;53.512;10.206;2023-08-06T13:21:34;18.30;99.90
45729;DHT22;31439;53.512;10.206;2023-08-06T13:24:01;18.50;99.90
45729;DHT22;31439;53.512;10.206;2023-08-06T13:26:29;18.50;99.90
45729;DHT22;31439;53.512;10.206;2023-08-06T13:28:56;18.60;99.90
45729;DHT22;31439;53.512;10.206;2023-08-06T13:31:21;18.60;99.90
45729;DHT22;31439;53.512;10.206;2023-08-06T13:33:47;18.70;99.90
45729;DHT22;31439;53.512;10.206;2023-08-06T13:36:13;18.60;99.90
45729;DHT22;31439;53.512;10.206;2023-08-06T13:38:39;18.50;99.90
45729;DHT22;31439;53.512;10.206;2023-08-06T13:41:05;18.50;99.90
45729;DHT22;31439;53.512;10.206;2023-08-06T13:43:31;18.50;99.90
45729;DHT22;31439;53.512;10.206;2023-08-06T13:45:56;18.50;99.90
45729;DHT22;31439;53.512;10.206;2023-08-06T13:48:22;18.60;99.90
45729;DHT22;31439;53.512;10.206;2023-08-06T13:50:48;18.60;99.90
45729;DHT22;31439;53.512;10.206;2023-08-06T13:53:14;18.60;99.90
45729;DHT22;31439;53.512;10.206;2023-08-06T13:55:39;18.60;99.90
45729;DHT22;31439;53.512;10.206;2023-08-06T13:58:05;18.60;99.90
45729;DHT22;31439;53.512;10.206;2023-08-06T14:00:30;18.70;99.90
45729;DHT22;31439;53.512;10.206;2023-08-06T14:02:56;18.70;99.90
45729;DHT22;31439;53.512;10.206;2023-08-06T14:05:21;18.70;99.90
45729;DHT22;31439;53.512;10.206;2023-08-06T14:07:47;18.80;99.90
45729;DHT22;31439;53.512;10.206;2023-08-06T14:10:13;18.80;99.90
45729;DHT22;31439;53.512;10.206;2023-08-06T14:12:38;18.80;99.90
45729;DHT22;31439;53.512;10.206;2023-08-06T14:15:04;18.80;99.90
45729;DHT22;31439;53.512;10.206;2023-08-06T14:17:30;18.90;99.90
45729;DHT22;31439;53.512;10.206;2023-08-06T14:19:55;19.00;99.90
45729;DHT22;31439;53.512;10.206;2023-08-06T14:22:22;18.90;99.90
45729;DHT22;31439;53.512;10.206;2023-08-06T14:24:47;19.00;99.90
45729;DHT22;31439;53.512;10.206;2023-08-06T14:27:13;19.00;99.90
45729;DHT22;31439;53.512;10.206;2023-08-06T14:29:39;19.00;99.90
45729;DHT22;31439;53.512;10.206;2023-08-06T14:32:05;19.00;99.90
45729;DHT22;31439;53.512;10.206;2023-08-06T14:34:30;18.90;99.90
45729;DHT22;31439;53.512;10.206;2023-08-06T14:36:56;19.00;99.90
45729;DHT22;31439;53.512;10.206;2023-08-06T14:39:22;18.80;99.90
45729;DHT22;31439;53.512;10.206;2023-08-06T14:41:47;18.70;99.90
45729;DHT22;31439;53.512;10.206;2023-08-06T14:44:13;18.60;99.90
45729;DHT22;31439;53.512;10.206;2023-08-06T14:46:39;18.50;99.90
45729;DHT22;31439;53.512;10.206;2023-08-06T14:49:04;18.40;99.90
45729;DHT22;31439;53.512;10.206;2023-08-06T14:51:30;18.20;99.90
45729;DHT22;31439;53.512;10.206;2023-08-06T14:53:56;18.30;99.90
45729;DHT22;31439;53.512;10.206;2023-08-06T14:56:21;18.20;99.90
45729;DHT22;31439;53.512;10.206;2023-08-06T14:58:48;18.20;99.90
45729;DHT22;31439;53.512;10.206;2023-08-06T15:01:14;18.20;99.90
45729;DHT22;31439;53.512;10.206;2023-08-06T15:03:39;18.20;99.90
45729;DHT22;31439;53.512;10.206;2023-08-06T15:06:05;18.10;99.90
45729;DHT22;31439;53.512;10.206;2023-08-06T15:08:30;18.10;99.90
45729;DHT22;31439;53.512;10.206;2023-08-06T15:10:56;18.10;99.90
45729;DHT22;31439;53.512;10.206;2023-08-06T15:13:21;18.00;99.90
45729;DHT22;31439;53.512;10.206;2023-08-06T15:15:48;17.90;99.90
45729;DHT22;31439;53.512;10.206;2023-08-06T15:18:14;17.90;99.90
45729;DHT22;31439;53.512;10.206;2023-08-06T15:20:39;17.90;99.90
45729;DHT22;31439;53.512;10.206;2023-08-06T15:23:05;17.90;99.90